Time;durP1;ratioP1;P1;durP2;ratioP2;P2;SDS_P1;SDS_P2;PMS_P1;PMS_P2;Temp;Humidity;BMP_temperature;BMP_pressure;BME280_temperature;BME280_humidity;BME280_pressure;Samples;Min_cycle;Max_cycle;Signal;HPM_P1;HPM_P2
2021/04/22 00:00:07;;;;;;;8.45;3.08;;;9.40;68.70;;;;;;5044763;28;20057;-66
2021/04/22 00:02:35;;;;;;;6.43;3.22;;;9.40;69.10;;;;;;5048420;28;20220;-65
2021/04/22 00:05:22;;;;;;;7.93;3.33;;;9.30;69.10;;;;;;5046908;28;20240;-66
2021/04/22 00:07:50;;;;;;;9.63;2.60;;;9.30;69.10;;;;;;5051526;28;20105;-66
2021/04/22 00:10:21;;;;;;;6.90;2.80;;;9.20;69.10;;;;;;5049519;28;20044;-66
2021/04/22 00:12:49;;;;;;;6.35;3.10;;;9.10;68.80;;;;;;5034080;28;20122;-66
2021/04/22 00:15:20;;;;;;;10.88;3.08;;;9.00;68.60;;;;;;5048963;28;20060;-66
2021/04/22 00:17:48;;;;;;;9.75;3.72;;;9.00;68.70;;;;;;5046337;28;20116;-66
2021/04/22 00:20:17;;;;;;;12.35;2.70;;;8.90;68.70;;;;;;5045893;28;20041;-66
2021/04/22 00:22:44;;;;;;;9.00;3.20;;;8.90;68.30;;;;;;5046540;28;20064;-66
2021/04/22 00:25:12;;;;;;;8.95;3.30;;;8.80;68.30;;;;;;5051032;28;20328;-66
2021/04/22 00:27:39;;;;;;;10.43;3.15;;;8.80;68.40;;;;;;5047643;28;20271;-66
2021/04/22 00:30:11;;;;;;;9.00;3.40;;;8.70;69.00;;;;;;5048207;28;20052;-65
2021/04/22 00:32:38;;;;;;;8.73;3.13;;;8.50;69.70;;;;;;5049856;28;20294;-66
2021/04/22 00:35:07;;;;;;;8.10;2.50;;;8.50;69.40;;;;;;5032640;28;20057;-66
2021/04/22 00:37:35;;;;;;;6.53;2.38;;;8.40;69.40;;;;;;5047930;28;20076;-66
2021/04/22 00:40:11;;;;;;;10.38;3.35;;;8.40;69.60;;;;;;5050668;28;20130;-66
2021/04/22 00:42:38;;;;;;;5.25;2.25;;;8.30;69.50;;;;;;5053517;28;20056;-65
2021/04/22 00:45:06;;;;;;;5.57;2.45;;;8.30;69.30;;;;;;5036802;28;20053;-66
2021/04/22 00:47:34;;;;;;;7.53;3.25;;;8.20;69.50;;;;;;5055098;28;20060;-66
2021/04/22 00:50:01;;;;;;;10.88;3.30;;;8.20;69.60;;;;;;5051454;28;20052;-66
2021/04/22 00:52:35;;;;;;;8.73;2.13;;;8.20;69.60;;;;;;5052634;28;20045;-66
2021/04/22 00:55:05;;;;;;;6.18;2.22;;;8.00;70.00;;;;;;5052095;28;20083;-66
2021/04/22 00:57:32;;;;;;;7.85;2.80;;;8.00;70.00;;;;;;5048849;28;20103;-66
2021/04/22 00:59:59;;;;;;;4.15;2.47;;;8.00;70.20;;;;;;5048734;28;20064;-66
2021/04/22 01:02:26;;;;;;;10.68;2.33;;;7.90;70.40;;;;;;5032934;28;20391;-66
2021/04/22 01:04:53;;;;;;;12.32;2.70;;;7.70;70.70;;;;;;5034619;28;20068;-66
2021/04/22 01:07:22;;;;;;;8.50;2.67;;;7.70;70.90;;;;;;5049665;28;20052;-66
2021/04/22 01:09:50;;;;;;;7.10;2.35;;;7.70;71.10;;;;;;5051502;28;20076;-65
2021/04/22 01:12:17;;;;;;;4.50;1.98;;;7.60;70.90;;;;;;5052445;28;20175;-66
2021/04/22 01:14:45;;;;;;;10.43;2.60;;;7.60;71.10;;;;;;5050891;28;20286;-65
2021/04/22 01:17:12;;;;;;;6.80;2.38;;;7.50;71.20;;;;;;5052932;28;20044;-66
2021/04/22 01:19:39;;;;;;;7.60;2.50;;;7.50;71.10;;;;;;5046303;28;20057;-66
2021/04/22 01:22:07;;;;;;;8.80;2.15;;;7.50;71.20;;;;;;5046628;28;20049;-65
2021/04/22 01:24:34;;;;;;;4.78;1.48;;;7.40;71.30;;;;;;5049138;28;20133;-66
2021/04/22 01:27:06;;;;;;;6.95;3.05;;;7.40;70.90;;;;;;5052739;28;20041;-66
2021/04/22 01:29:32;;;;;;;6.68;3.78;;;7.30;71.20;;;;;;5053470;28;20080;-66
2021/04/22 01:32:02;;;;;;;6.25;2.40;;;7.30;71.20;;;;;;5030518;28;20291;-66
2021/04/22 01:34:30;;;;;;;;;;;7.30;71.00;;;;;;5056603;28;20056;-65
2021/04/22 01:36:57;;;;;;;5.60;1.73;;;7.20;71.20;;;;;;5056952;28;19960;-66
2021/04/22 01:39:26;;;;;;;14.50;2.75;;;7.20;71.40;;;;;;5052670;28;20040;-66
2021/04/22 01:41:53;;;;;;;9.68;2.85;;;7.10;71.10;;;;;;5047921;28;20202;-66
2021/04/22 01:44:20;;;;;;;6.75;1.73;;;7.10;71.30;;;;;;5051514;28;20057;-66
2021/04/22 01:46:47;;;;;;;7.57;2.55;;;7.00;71.30;;;;;;5052419;28;20126;-66
2021/04/22 01:49:14;;;;;;;3.72;1.77;;;7.00;71.30;;;;;;5051682;28;20271;-66
2021/04/22 01:51:44;;;;;;;10.82;2.38;;;6.90;71.20;;;;;;5050027;28;20132;-66
2021/04/22 01:54:14;;;;;;;3.22;1.27;;;6.80;70.70;;;;;;5055472;28;20131;-66
2021/04/22 01:56:42;;;;;;;7.50;2.13;;;6.80;70.40;;;;;;5054216;28;20071;-65
2021/04/22 01:59:09;;;;;;;9.02;1.48;;;6.70;70.10;;;;;;5050643;28;20060;-66
2021/04/22 02:01:36;;;;;;;7.40;1.63;;;6.70;69.80;;;;;;5048718;28;20064;-66
2021/04/22 02:04:07;;;;;;;3.47;1.48;;;6.60;69.70;;;;;;5053312;28;20045;-66
2021/04/22 02:06:33;;;;;;;4.93;1.58;;;6.60;69.10;;;;;;5049240;28;20076;-66
2021/04/22 02:09:00;;;;;;;8.50;2.00;;;6.50;68.80;;;;;;5050270;28;20057;-66
2021/04/22 02:11:31;;;;;;;4.10;0.80;;;6.50;68.50;;;;;;5051232;28;20045;-65
2021/04/22 02:14:00;;;;;;;1.70;0.73;;;6.40;68.20;;;;;;5049085;28;20256;-66
2021/04/22 02:16:31;;;;;;;5.10;1.13;;;6.40;67.80;;;;;;5047572;28;20068;-65
2021/04/22 02:18:58;;;;;;;4.65;1.55;;;6.30;67.70;;;;;;5053246;28;20056;-66
2021/04/22 02:21:25;;;;;;;3.00;0.77;;;6.20;68.00;;;;;;5053590;28;20078;-65
2021/04/22 02:23:52;;;;;;;2.88;0.63;;;6.10;68.20;;;;;;5054148;28;20051;-66
2021/04/22 02:26:19;;;;;;;2.78;0.90;;;6.10;68.20;;;;;;5050174;28;20100;-65
2021/04/22 02:28:46;;;;;;;9.15;1.20;;;6.00;68.50;;;;;;5035725;28;20084;-65
2021/04/22 02:31:14;;;;;;;3.33;0.73;;;6.00;68.40;;;;;;5050226;28;20045;-65
2021/04/22 02:33:41;;;;;;;9.10;1.35;;;6.00;68.70;;;;;;5054660;28;20118;-66
2021/04/22 02:36:08;;;;;;;2.05;0.68;;;5.90;68.60;;;;;;5046048;28;20063;-66
2021/04/22 02:38:35;;;;;;;5.35;1.02;;;5.80;68.70;;;;;;5054879;28;20602;-66
2021/04/22 02:41:03;;;;;;;2.10;0.60;;;5.80;69.00;;;;;;5053637;28;20044;-65
2021/04/22 02:43:29;;;;;;;3.40;0.40;;;5.70;69.20;;;;;;5052153;28;20301;-66
2021/04/22 02:45:57;;;;;;;3.47;0.90;;;5.70;69.50;;;;;;5051944;28;20061;-66
2021/04/22 02:48:25;;;;;;;1.02;0.45;;;5.70;69.60;;;;;;5051909;28;20061;-66
2021/04/22 02:50:55;;;;;;;2.80;0.70;;;5.60;69.90;;;;;;5051181;28;20292;-66
2021/04/22 02:53:23;;;;;;;6.47;1.00;;;5.50;70.10;;;;;;5053434;28;20061;-66
2021/04/22 02:55:51;;;;;;;2.17;0.85;;;5.40;70.50;;;;;;5050951;28;20057;-66
2021/04/22 02:58:19;;;;;;;4.95;1.52;;;5.40;70.60;;;;;;5056349;28;20337;-65
2021/04/22 03:00:47;;;;;;;4.28;0.77;;;5.30;70.70;;;;;;5046586;28;20475;-65
2021/04/22 03:03:14;;;;;;;10.68;1.10;;;5.30;70.90;;;;;;5055052;28;20033;-66
2021/04/22 03:05:42;;;;;;;7.55;0.93;;;5.20;71.00;;;;;;5052358;28;20049;-65
2021/04/22 03:08:09;;;;;;;2.10;0.63;;;5.20;70.90;;;;;;5051929;28;20124;-65
2021/04/22 03:10:37;;;;;;;2.95;0.70;;;5.20;71.20;;;;;;5048922;28;20053;-67
2021/04/22 03:13:05;;;;;;;5.10;1.00;;;5.10;71.40;;;;;;5053651;28;20085;-66
2021/04/22 03:15:33;;;;;;;2.55;0.50;;;5.00;71.40;;;;;;5052133;28;20213;-65
2021/04/22 03:18:00;;;;;;;8.35;0.75;;;5.00;71.60;;;;;;5049735;28;20124;-66
2021/04/22 03:20:33;;;;;;;2.80;0.95;;;4.90;71.80;;;;;;5052355;28;20120;-66
2021/04/22 03:23:01;;;;;;;1.48;0.45;;;4.90;71.90;;;;;;5054298;28;20061;-66
2021/04/22 03:25:30;;;;;;;4.38;0.77;;;4.80;72.10;;;;;;5055785;28;21119;-65
2021/04/22 03:27:57;;;;;;;7.43;1.08;;;4.80;72.20;;;;;;5051810;28;20052;-66
2021/04/22 03:30:27;;;;;;;9.15;0.95;;;4.70;72.50;;;;;;5050685;28;21278;-66
2021/04/22 03:32:55;;;;;;;4.18;2.05;;;4.70;72.70;;;;;;5052076;28;20190;-65
2021/04/22 03:35:22;;;;;;;3.20;0.95;;;4.60;72.90;;;;;;5047406;28;20237;-65
2021/04/22 03:37:50;;;;;;;2.78;0.75;;;4.60;72.90;;;;;;5046106;28;20061;-66
2021/04/22 03:40:19;;;;;;;6.05;1.27;;;4.60;73.30;;;;;;5045146;28;20099;-66
2021/04/22 03:42:46;;;;;;;3.25;0.63;;;4.50;73.30;;;;;;5057742;28;20088;-66
2021/04/22 03:45:15;;;;;;;8.73;0.90;;;4.40;73.60;;;;;;5045650;28;20323;-66
2021/04/22 03:47:42;;;;;;;2.40;0.63;;;4.40;73.70;;;;;;5043895;28;20049;-65
2021/04/22 03:50:12;;;;;;;4.28;1.10;;;4.30;74.00;;;;;;5048002;28;20071;-66
2021/04/22 03:52:41;;;;;;;6.07;0.85;;;4.40;73.90;;;;;;5046500;28;20103;-66
2021/04/22 03:55:10;;;;;;;2.03;0.85;;;4.30;74.20;;;;;;5055592;28;20057;-65
2021/04/22 03:57:38;;;;;;;6.60;1.08;;;4.30;74.20;;;;;;5061649;28;20103;-65
2021/04/22 04:00:07;;;;;;;10.43;1.52;;;4.30;74.10;;;;;;5050099;28;20053;-65
2021/04/22 04:02:34;;;;;;;1.80;0.55;;;4.20;74.10;;;;;;5056065;28;20260;-66
2021/04/22 04:05:01;;;;;;;7.22;1.40;;;4.20;74.10;;;;;;5054991;28;20423;-65
2021/04/22 04:07:29;;;;;;;2.47;0.55;;;4.20;74.00;;;;;;5055004;28;20075;-65
2021/04/22 04:09:55;;;;;;;5.20;0.98;;;4.20;73.90;;;;;;5032811;28;20163;-66
2021/04/22 04:12:24;;;;;;;3.30;0.98;;;4.20;73.70;;;;;;5052147;28;20099;-66
2021/04/22 04:14:52;;;;;;;8.90;1.63;;;4.20;73.70;;;;;;5053495;28;20240;-66
2021/04/22 04:17:19;;;;;;;5.13;0.52;;;4.20;73.90;;;;;;5050289;28;20049;-66
2021/04/22 04:19:46;;;;;;;5.72;0.90;;;4.10;74.10;;;;;;5049956;28;20061;-66
2021/04/22 04:22:13;;;;;;;2.20;0.70;;;4.10;74.00;;;;;;5053787;28;20044;-66
2021/04/22 04:24:40;;;;;;;6.10;1.10;;;4.10;73.80;;;;;;5060488;28;20048;-65
2021/04/22 04:27:07;;;;;;;4.50;0.95;;;4.10;73.20;;;;;;5055070;28;20052;-66
2021/04/22 04:29:34;;;;;;;11.73;1.45;;;4.10;72.20;;;;;;5052595;28;20084;-66
2021/04/22 04:32:02;;;;;;;8.55;2.20;;;4.10;71.90;;;;;;5053656;28;20326;-66
2021/04/22 04:34:29;;;;;;;7.10;1.20;;;4.20;71.70;;;;;;5052641;28;20140;-65
2021/04/22 04:36:56;;;;;;;4.78;1.42;;;4.20;71.20;;;;;;5056131;28;20394;-65
2021/04/22 04:39:23;;;;;;;7.18;1.40;;;4.20;70.80;;;;;;5055363;28;20060;-65
2021/04/22 04:41:50;;;;;;;5.68;1.05;;;4.20;70.50;;;;;;5056044;28;20057;-66
2021/04/22 04:44:17;;;;;;;6.10;0.82;;;4.30;70.20;;;;;;5055400;28;20083;-66
2021/04/22 04:46:45;;;;;;;9.68;1.38;;;4.30;70.30;;;;;;5057122;28;20051;-65
2021/04/22 04:49:13;;;;;;;7.68;1.73;;;4.30;70.30;;;;;;5060719;28;20049;-65
2021/04/22 04:51:42;;;;;;;3.20;0.85;;;4.30;69.90;;;;;;5041000;28;20125;-66
2021/04/22 04:54:09;;;;;;;7.18;2.15;;;4.30;69.80;;;;;;5053658;28;20053;-66
2021/04/22 04:56:37;;;;;;;6.85;0.98;;;4.30;69.70;;;;;;5056751;28;20245;-66
2021/04/22 04:59:04;;;;;;;3.33;1.30;;;4.30;69.60;;;;;;5063253;28;20048;-65
2021/04/22 05:01:32;;;;;;;3.85;0.95;;;4.30;69.60;;;;;;5058324;28;20774;-65
2021/04/22 05:03:59;;;;;;;6.18;2.65;;;4.30;69.50;;;;;;5053366;28;20053;-66
2021/04/22 05:06:27;;;;;;;4.55;1.30;;;4.40;69.30;;;;;;5059381;28;20356;-65
2021/04/22 05:08:55;;;;;;;5.25;0.98;;;4.40;69.30;;;;;;5060599;28;20057;-66
2021/04/22 05:11:22;;;;;;;8.10;1.23;;;4.50;69.00;;;;;;5065211;28;20125;-65
2021/04/22 05:13:49;;;;;;;3.70;1.67;;;4.50;68.80;;;;;;5062928;28;20402;-65
2021/04/22 05:16:18;;;;;;;11.93;1.48;;;4.50;68.80;;;;;;5066852;28;20053;-65
2021/04/22 05:18:45;;;;;;;3.13;0.98;;;4.60;68.80;;;;;;5053187;28;20060;-65
2021/04/22 05:21:12;;;;;;;5.82;1.50;;;4.60;68.70;;;;;;5046324;28;20052;-66
2021/04/22 05:23:40;;;;;;;6.60;1.27;;;4.60;68.50;;;;;;5028340;28;20563;-66
2021/04/22 05:26:08;;;;;;;2.95;0.85;;;4.70;68.30;;;;;;5052702;28;20230;-65
2021/04/22 05:28:36;;;;;;;8.82;1.50;;;4.70;68.10;;;;;;5061207;28;20171;-65
2021/04/22 05:31:06;;;;;;;2.97;0.68;;;4.80;68.00;;;;;;5063911;28;20052;-66
2021/04/22 05:33:33;;;;;;;8.60;1.48;;;4.80;68.10;;;;;;5055869;28;20096;-66
2021/04/22 05:36:00;;;;;;;3.63;0.75;;;4.90;67.80;;;;;;5061780;28;20209;-66
2021/04/22 05:38:30;;;;;;;6.30;1.00;;;4.80;67.90;;;;;;5059763;28;20072;-66
2021/04/22 05:40:58;;;;;;;14.57;1.83;;;4.90;67.40;;;;;;5061453;28;20057;-66
2021/04/22 05:43:38;;;;;;;3.97;0.73;;;5.00;67.10;;;;;;2807588;28;10002184;-66
2021/04/22 05:46:05;;;;;;;4.70;0.70;;;5.00;66.80;;;;;;2957528;28;10001258;-65
2021/04/22 05:48:32;;;;;;;6.43;1.42;;;5.10;65.70;;;;;;5038528;28;20135;-66
2021/04/22 05:50:59;;;;;;;3.85;0.57;;;5.20;64.70;;;;;;5052943;28;20058;-66
2021/04/22 05:53:26;;;;;;;7.82;2.35;;;5.20;64.90;;;;;;5059464;28;20053;-66
2021/04/22 05:55:53;;;;;;;14.35;1.58;;;5.20;65.00;;;;;;5062396;28;20283;-66
2021/04/22 05:58:21;;;;;;;11.02;2.35;;;5.30;64.30;;;;;;5057438;28;20172;-65
2021/04/22 06:00:48;;;;;;;12.73;1.75;;;5.30;64.50;;;;;;5052194;28;20084;-65
2021/04/22 06:03:15;;;;;;;4.43;0.70;;;5.30;64.00;;;;;;5049059;28;20120;-67
2021/04/22 06:05:42;;;;;;;6.88;1.17;;;5.30;64.10;;;;;;5052056;28;20052;-66
2021/04/22 06:08:09;;;;;;;7.93;1.98;;;5.40;64.30;;;;;;5048703;28;20398;-66
2021/04/22 06:10:38;;;;;;;7.05;1.77;;;5.30;64.00;;;;;;5052406;28;20071;-67
2021/04/22 06:13:08;;;;;;;5.45;1.20;;;5.40;63.70;;;;;;5053342;28;20363;-66
2021/04/22 06:15:37;;;;;;;3.20;1.45;;;5.50;63.50;;;;;;5051703;28;20041;-65
2021/04/22 06:18:05;;;;;;;6.05;2.00;;;5.50;63.20;;;;;;5054956;28;20044;-66
2021/04/22 06:20:33;;;;;;;12.88;1.90;;;5.60;62.80;;;;;;5054566;28;20064;-66
2021/04/22 06:23:00;;;;;;;9.35;1.33;;;5.60;62.20;;;;;;5058201;28;20057;-66
2021/04/22 06:25:35;;;;;;;7.18;1.77;;;5.60;62.40;;;;;;5058961;28;20237;-65
2021/04/22 06:28:05;;;;;;;4.10;1.88;;;5.70;61.90;;;;;;5054891;28;20049;-66
2021/04/22 06:30:32;;;;;;;5.00;1.00;;;5.70;61.50;;;;;;5054172;28;20077;-65
2021/04/22 06:33:03;;;;;;;4.35;1.52;;;5.70;61.10;;;;;;5057038;28;20087;-65
2021/04/22 06:35:31;;;;;;;7.20;1.73;;;5.70;61.10;;;;;;5054790;28;20356;-66
2021/04/22 06:37:59;;;;;;;6.57;2.78;;;5.70;60.70;;;;;;5051072;28;20075;-66
2021/04/22 06:40:26;;;;;;;5.85;2.30;;;5.60;60.50;;;;;;5049579;28;20304;-67
2021/04/22 06:42:54;;;;;;;4.75;1.48;;;5.70;60.80;;;;;;5052402;28;20328;-67
2021/04/22 06:45:23;;;;;;;4.25;2.13;;;5.70;60.70;;;;;;5056781;28;20053;-66
2021/04/22 06:47:50;;;;;;;7.00;1.70;;;5.60;59.90;;;;;;5045034;28;20067;-67
2021/04/22 06:50:20;;;;;;;13.88;2.53;;;5.70;60.10;;;;;;5055714;28;20056;-67
2021/04/22 06:52:48;;;;;;;6.72;1.90;;;5.60;60.70;;;;;;5051794;28;20092;-66
2021/04/22 06:55:17;;;;;;;8.77;1.20;;;5.70;60.40;;;;;;5053782;28;20044;-65
2021/04/22 06:57:44;;;;;;;5.82;1.33;;;5.70;59.90;;;;;;5056772;28;20075;-66
2021/04/22 07:00:14;;;;;;;11.80;2.17;;;5.70;60.20;;;;;;5051667;28;20067;-66
2021/04/22 07:02:41;;;;;;;5.80;1.67;;;5.80;60.00;;;;;;5064317;28;20244;-66
2021/04/22 07:05:09;;;;;;;4.75;1.50;;;5.90;59.60;;;;;;5058401;28;20159;-66
2021/04/22 07:07:38;;;;;;;11.77;1.73;;;5.90;59.50;;;;;;5052990;28;20121;-65
2021/04/22 07:10:08;;;;;;;12.00;2.38;;;6.00;58.90;;;;;;5055721;28;20307;-65
2021/04/22 07:12:35;;;;;;;6.78;1.60;;;6.00;59.10;;;;;;5048706;28;20364;-65
2021/04/22 07:15:11;;;;;;;5.47;1.60;;;6.10;58.30;;;;;;5054342;28;20052;-66
2021/04/22 07:17:39;;;;;;;11.32;1.85;;;6.10;58.60;;;;;;5046952;28;20060;-65
2021/04/22 07:20:08;;;;;;;7.18;2.13;;;6.10;58.20;;;;;;5049052;28;20064;-66
2021/04/22 07:22:37;;;;;;;9.63;1.95;;;6.10;58.50;;;;;;5058409;28;20049;-66
2021/04/22 07:25:08;;;;;;;11.82;3.15;;;6.20;57.10;;;;;;5047090;28;20116;-65
2021/04/22 07:27:35;;;;;;;7.05;1.45;;;6.30;57.70;;;;;;5045610;28;20383;-66
2021/04/22 07:30:04;;;;;;;9.38;1.80;;;6.40;57.00;;;;;;5050129;28;20064;-66
2021/04/22 07:32:31;;;;;;;8.30;2.20;;;6.40;56.50;;;;;;5058135;28;20347;-65
2021/04/22 07:35:00;;;;;;;6.93;1.92;;;6.50;56.70;;;;;;5033552;28;20064;-66
2021/04/22 07:37:32;;;;;;;6.93;1.33;;;6.60;55.90;;;;;;5052788;28;20059;-66
2021/04/22 07:40:01;;;;;;;8.38;1.52;;;6.60;56.60;;;;;;5052288;28;20244;-66
2021/04/22 07:42:28;;;;;;;5.80;1.50;;;6.70;56.70;;;;;;5050251;28;20049;-66
2021/04/22 07:44:56;;;;;;;4.80;1.25;;;6.80;56.00;;;;;;5049890;28;20206;-66
2021/04/22 07:47:23;;;;;;;8.15;1.58;;;6.80;55.40;;;;;;5037857;28;20091;-65
2021/04/22 07:49:50;;;;;;;6.05;1.73;;;6.80;54.70;;;;;;5053958;28;20120;-66
2021/04/22 07:52:20;;;;;;;10.98;2.10;;;6.90;54.70;;;;;;5055843;28;20056;-65
2021/04/22 07:54:48;;;;;;;8.10;2.43;;;7.00;53.90;;;;;;5034577;28;20049;-65
2021/04/22 07:57:19;;;;;;;6.57;1.25;;;7.00;54.10;;;;;;5054723;28;20264;-65
2021/04/22 07:59:46;;;;;;;2.22;1.00;;;7.00;54.10;;;;;;5061140;28;20048;-66
2021/04/22 08:02:13;;;;;;;8.10;1.40;;;7.10;54.10;;;;;;5056868;28;20083;-66
2021/04/22 08:04:40;;;;;;;5.95;1.70;;;7.20;53.90;;;;;;5057337;28;20057;-66
2021/04/22 08:07:07;;;;;;;5.18;1.27;;;7.20;52.90;;;;;;5057899;28;20076;-66
2021/04/22 08:09:34;;;;;;;7.55;1.95;;;7.40;53.40;;;;;;5057250;28;20120;-65
2021/04/22 08:12:05;;;;;;;9.23;1.40;;;7.50;52.50;;;;;;5046629;28;20329;-66
2021/04/22 08:14:34;;;;;;;19.00;1.58;;;7.70;54.10;;;;;;5044566;28;20352;-66
2021/04/22 08:17:01;;;;;;;8.90;1.67;;;7.80;52.50;;;;;;5042361;28;20053;-65
2021/04/22 08:19:29;;;;;;;2.40;1.15;;;7.80;51.80;;;;;;5050866;28;20359;-65
2021/04/22 08:21:56;;;;;;;2.47;0.90;;;7.90;51.80;;;;;;5055330;28;20059;-66
2021/04/22 08:24:23;;;;;;;5.22;1.40;;;8.00;51.30;;;;;;5053861;28;20056;-66
2021/04/22 08:26:49;;;;;;;7.68;1.27;;;8.00;50.70;;;;;;5051497;28;20045;-66
2021/04/22 08:29:16;;;;;;;6.07;1.45;;;8.10;50.90;;;;;;5050559;28;20390;-65
2021/04/22 08:31:44;;;;;;;10.45;1.98;;;8.20;50.60;;;;;;5055509;28;20060;-66
2021/04/22 08:34:11;;;;;;;6.95;1.50;;;8.40;50.80;;;;;;5039845;28;20119;-67
2021/04/22 08:36:38;;;;;;;6.95;1.48;;;8.60;49.80;;;;;;5050705;28;20365;-65
2021/04/22 08:39:07;;;;;;;4.00;1.00;;;8.60;48.80;;;;;;5048899;28;20063;-66
2021/04/22 08:41:34;;;;;;;5.90;1.27;;;8.60;49.40;;;;;;5048586;28;20210;-66
2021/04/22 08:44:04;;;;;;;7.68;1.88;;;8.70;50.10;;;;;;5050251;28;20077;-66
2021/04/22 08:46:31;;;;;;;6.25;1.35;;;8.90;49.10;;;;;;5048771;28;20049;-65
2021/04/22 08:48:59;;;;;;;5.53;1.45;;;8.90;48.30;;;;;;5062779;28;20076;-65
2021/04/22 08:51:27;;;;;;;4.60;1.15;;;9.00;47.50;;;;;;5053423;28;20164;-66
2021/04/22 08:53:54;;;;;;;6.00;1.42;;;9.00;48.60;;;;;;5049372;28;20116;-66
2021/04/22 08:56:21;;;;;;;9.43;1.35;;;9.30;48.10;;;;;;5047147;28;20067;-65
2021/04/22 08:58:49;;;;;;;2.45;0.63;;;9.50;45.90;;;;;;5057888;28;20118;-66
2021/04/22 09:01:18;;;;;;;8.93;2.05;;;9.70;46.10;;;;;;5055743;28;20049;-66
2021/04/22 09:03:47;;;;;;;6.03;1.48;;;9.70;45.30;;;;;;5048502;28;20129;-66
2021/04/22 09:06:15;;;;;;;1.40;0.70;;;10.00;45.30;;;;;;5051611;28;20057;-65
2021/04/22 09:08:47;;;;;;;11.32;2.03;;;10.10;45.10;;;;;;5057990;28;20065;-66
2021/04/22 09:11:17;;;;;;;16.25;2.17;;;10.20;44.60;;;;;;5055350;28;20107;-66
2021/04/22 09:13:44;;;;;;;5.78;1.00;;;10.40;44.10;;;;;;5051084;28;20119;-66
2021/04/22 09:16:13;;;;;;;3.08;0.90;;;10.60;43.00;;;;;;5060082;28;20094;-67
2021/04/22 09:18:42;;;;;;;6.43;1.65;;;10.70;42.30;;;;;;5051480;28;20371;-65
2021/04/22 09:21:20;;;;;;;6.10;1.52;;;10.80;42.40;;;;;;5047851;28;20068;-66
2021/04/22 09:24:07;;;;;;;3.83;1.20;;;10.70;43.00;;;;;;5045606;28;20059;-66
2021/04/22 09:26:39;;;;;;;7.03;1.70;;;10.90;43.80;;;;;;5051714;28;20044;-65
2021/04/22 09:29:07;;;;;;;7.63;2.08;;;11.00;42.30;;;;;;5039952;28;20143;-66
2021/04/22 09:31:34;;;;;;;7.90;1.88;;;11.20;42.30;;;;;;5056665;28;20059;-66
2021/04/22 09:34:10;;;;;;;7.28;1.77;;;11.30;41.90;;;;;;5059616;28;20221;-65
2021/04/22 09:36:47;;;;;;;4.93;1.17;;;11.50;41.00;;;;;;5047460;28;20065;-66
2021/04/22 09:39:18;;;;;;;5.88;1.70;;;11.60;40.20;;;;;;5049214;28;20045;-65
2021/04/22 09:41:49;;;;;;;6.13;1.52;;;11.60;40.00;;;;;;5045735;28;20095;-66
2021/04/22 09:44:19;;;;;;;5.18;1.17;;;11.70;40.20;;;;;;5041827;28;20044;-65
2021/04/22 09:47:00;;;;;;;8.18;1.42;;;11.90;40.30;;;;;;5054621;28;20091;-65
2021/04/22 09:49:31;;;;;;;8.98;1.98;;;12.10;40.10;;;;;;5048815;28;20053;-65
2021/04/22 09:52:07;;;;;;;6.03;1.30;;;12.20;39.90;;;;;;5052825;28;20054;-66
2021/04/22 09:54:43;;;;;;;4.90;1.38;;;12.40;38.70;;;;;;5065464;28;20053;-65
2021/04/22 09:57:20;;;;;;;7.18;1.38;;;12.50;39.50;;;;;;5058360;28;20045;-65
2021/04/22 09:59:47;;;;;;;7.15;1.48;;;12.60;38.40;;;;;;5062358;28;20399;-67
2021/04/22 10:02:14;;;;;;;4.57;1.15;;;12.60;37.50;;;;;;5058797;28;20108;-65
2021/04/22 10:04:44;;;;;;;5.05;1.20;;;12.50;38.00;;;;;;5056270;28;20057;-67
2021/04/22 10:07:24;;;;;;;6.30;1.50;;;12.80;36.90;;;;;;5062442;28;20245;-65
2021/04/22 10:09:53;;;;;;;3.08;1.10;;;13.20;36.30;;;;;;5055205;28;20060;-67
2021/04/22 10:12:23;;;;;;;4.30;2.00;;;13.80;35.00;;;;;;5054297;28;20057;-65
2021/04/22 10:14:52;;;;;;;7.28;1.33;;;14.70;33.70;;;;;;5056499;28;20252;-66
2021/04/22 10:17:22;;;;;;;3.65;1.35;;;15.80;32.70;;;;;;5055663;28;20075;-66
2021/04/22 10:20:00;;;;;;;7.35;1.20;;;16.60;31.50;;;;;;5055809;28;20049;-65
2021/04/22 10:22:35;;;;;;;6.55;1.83;;;17.00;30.50;;;;;;5060504;28;20110;-65
2021/04/22 10:25:05;;;;;;;6.60;1.27;;;18.00;30.60;;;;;;5057434;28;20831;-65
2021/04/22 10:27:32;;;;;;;6.53;1.95;;;19.20;27.60;;;;;;5051468;28;20056;-64
2021/04/22 10:30:00;;;;;;;4.72;1.23;;;19.70;27.00;;;;;;5059356;28;20052;-65
2021/04/22 10:32:29;;;;;;;8.97;1.10;;;20.10;26.60;;;;;;5057881;28;20053;-66
2021/04/22 10:34:56;;;;;;;10.32;1.92;;;20.40;26.50;;;;;;5052065;28;20073;-66
2021/04/22 10:37:25;;;;;;;4.43;1.20;;;21.00;25.70;;;;;;5053709;28;20057;-64
2021/04/22 10:39:57;;;;;;;6.13;1.73;;;21.70;24.30;;;;;;5052783;28;20045;-66
2021/04/22 10:42:25;;;;;;;7.05;1.48;;;21.80;24.20;;;;;;5052290;28;20064;-66
2021/04/22 10:44:52;;;;;;;7.30;1.20;;;22.30;24.20;;;;;;5037742;28;20077;-66
2021/04/22 10:47:24;;;;;;;6.97;1.65;;;23.30;22.50;;;;;;5053706;28;20045;-66
2021/04/22 10:49:52;;;;;;;6.53;1.52;;;23.00;22.50;;;;;;5056966;28;20450;-66
2021/04/22 10:52:21;;;;;;;4.88;1.30;;;23.80;21.30;;;;;;5054629;28;20045;-66
2021/04/22 10:54:50;;;;;;;13.27;4.97;;;23.70;21.30;;;;;;5052320;28;20060;-66
2021/04/22 10:57:21;;;;;;;9.07;1.98;;;23.70;21.90;;;;;;5044865;28;20049;-66
2021/04/22 10:59:59;;;;;;;6.25;1.77;;;24.10;21.20;;;;;;5041641;28;20053;-65
2021/04/22 11:02:26;;;;;;;7.22;1.52;;;24.40;21.20;;;;;;5040238;28;20130;-66
2021/04/22 11:04:54;;;;;;;5.93;2.28;;;25.10;20.50;;;;;;5043874;28;20120;-66
2021/04/22 11:07:23;;;;;;;4.97;1.33;;;24.60;20.50;;;;;;5047333;28;20106;-66
2021/04/22 11:09:51;;;;;;;11.18;1.55;;;25.00;20.00;;;;;;5040883;28;20052;-66
2021/04/22 11:12:27;;;;;;;5.95;1.73;;;24.60;20.30;;;;;;5040078;28;20068;-67
2021/04/22 11:14:55;;;;;;;10.35;1.50;;;25.10;20.50;;;;;;5040922;28;20128;-66
2021/04/22 11:17:35;;;;;;;5.95;1.90;;;25.60;20.10;;;;;;5044848;28;20112;-66
2021/04/22 11:20:11;;;;;;;6.85;1.80;;;25.70;19.70;;;;;;5047246;28;20323;-66
2021/04/22 11:22:38;;;;;;;7.63;2.10;;;26.00;19.10;;;;;;5044026;28;20378;-66
2021/04/22 11:25:10;;;;;;;6.82;2.25;;;26.20;18.50;;;;;;5023513;28;20053;-66
2021/04/22 11:27:48;;;;;;;7.53;1.85;;;27.00;18.30;;;;;;5044912;28;20136;-66
2021/04/22 11:30:26;;;;;;;5.90;1.85;;;27.00;18.30;;;;;;5038044;28;20076;-66
2021/04/22 11:32:54;;;;;;;4.75;2.25;;;26.80;18.10;;;;;;5043159;28;20049;-67
2021/04/22 11:35:24;;;;;;;4.88;1.92;;;27.00;17.80;;;;;;5043964;28;20068;-67
2021/04/22 11:37:54;;;;;;;10.43;1.70;;;26.30;18.90;;;;;;5055739;28;20324;-67
2021/04/22 11:40:27;;;;;;;8.30;1.90;;;26.80;18.70;;;;;;5048377;28;20076;-67
2021/04/22 11:42:56;;;;;;;7.53;1.95;;;27.10;17.70;;;;;;5044850;28;20061;-67
2021/04/22 11:45:24;;;;;;;;;;;27.40;17.20;;;;;;5042682;28;20374;-66
2021/04/22 11:47:55;;;;;;;4.53;1.45;;;27.50;17.40;;;;;;5046579;28;20204;-66
2021/04/22 11:50:24;;;;;;;6.63;1.25;;;28.00;16.80;;;;;;5043726;28;20061;-65
2021/04/22 11:52:54;;;;;;;9.68;2.00;;;27.80;17.00;;;;;;5045018;28;20075;-66
2021/04/22 11:55:22;;;;;;;;;;;28.30;16.60;;;;;;5044058;28;20151;-65
2021/04/22 11:57:55;;;;;;;8.40;1.92;;;28.10;16.60;;;;;;5044676;28;20896;-66
2021/04/22 12:00:24;;;;;;;6.32;1.38;;;28.40;16.70;;;;;;5042230;28;20146;-66
2021/04/22 12:02:51;;;;;;;7.75;1.67;;;28.20;16.90;;;;;;5040267;28;20065;-65
2021/04/22 12:05:20;;;;;;;6.10;1.70;;;28.60;16.00;;;;;;5040064;28;20053;-66
2021/04/22 12:07:58;;;;;;;6.95;2.15;;;28.60;16.60;;;;;;5038635;28;20057;-65
2021/04/22 12:10:27;;;;;;;9.15;2.00;;;28.50;15.90;;;;;;5048208;28;20119;-67
2021/04/22 12:13:02;;;;;;;8.23;1.80;;;28.40;16.70;;;;;;5052914;28;20099;-67
2021/04/22 12:15:45;;;;;;;9.90;2.00;;;28.80;16.60;;;;;;5050834;28;20072;-67
2021/04/22 12:18:22;;;;;;;7.25;1.08;;;29.00;16.30;;;;;;5052224;28;20060;-67
2021/04/22 12:20:50;;;;;;;7.22;1.95;;;29.00;15.60;;;;;;5040585;28;20056;-67
2021/04/22 12:23:28;;;;;;;8.02;2.30;;;28.60;15.70;;;;;;5056730;28;20045;-67
2021/04/22 12:25:55;;;;;;;9.70;1.77;;;28.10;17.30;;;;;;5039066;28;20483;-65
2021/04/22 12:28:23;;;;;;;8.13;1.67;;;29.00;16.10;;;;;;5052324;28;20053;-66
2021/04/22 12:30:52;;;;;;;5.07;1.63;;;29.20;15.70;;;;;;5050803;28;20055;-66
2021/04/22 12:33:21;;;;;;;7.20;2.00;;;28.00;15.90;;;;;;5055733;28;20060;-66
2021/04/22 12:35:57;;;;;;;7.13;2.00;;;27.60;16.60;;;;;;5053613;28;20057;-66
2021/04/22 12:38:27;;;;;;;9.75;1.92;;;29.10;15.60;;;;;;5058421;28;20052;-67
2021/04/22 12:40:55;;;;;;;;;;;29.10;15.70;;;;;;5037033;28;20040;-67
2021/04/22 12:43:25;;;;;;;5.03;1.30;;;30.20;15.40;;;;;;5052327;28;20004;-67
2021/04/22 12:45:52;;;;;;;6.05;1.80;;;29.80;15.20;;;;;;5049720;28;20049;-67
2021/04/22 12:48:20;;;;;;;5.90;1.80;;;28.80;15.70;;;;;;5052675;28;20343;-67
2021/04/22 12:50:48;;;;;;;6.78;1.77;;;28.90;16.00;;;;;;5051741;28;20052;-66
2021/04/22 12:53:18;;;;;;;5.85;1.77;;;29.10;16.20;;;;;;5054378;28;20356;-67
2021/04/22 12:55:48;;;;;;;9.13;2.45;;;29.40;15.70;;;;;;5054906;28;20055;-66
2021/04/22 12:58:17;;;;;;;5.70;1.55;;;28.10;16.90;;;;;;5042663;28;20067;-67
2021/04/22 13:00:49;;;;;;;4.17;1.10;;;27.80;16.50;;;;;;5049302;28;20607;-66